Time;durP1;ratioP1;P1;durP2;ratioP2;P2;SDS_P1;SDS_P2;PMS_P1;PMS_P2;Temp;Humidity;BMP_temperature;BMP_pressure;BME280_temperature;BME280_humidity;BME280_pressure;Samples;Min_cycle;Max_cycle;Signal;HPM_P1;HPM_P2
2021/09/11 00:00:27;;;;;;;1.58;1.48;;;;;;;;;;5075589;28;20192;-83
2021/09/11 00:02:56;;;;;;;1.60;1.50;;;;;;;;;;5075092;28;20197;-82
2021/09/11 00:05:24;;;;;;;1.80;1.70;;;;;;;;;;5075209;28;20694;-83
2021/09/11 00:07:52;;;;;;;1.63;1.52;;;;;;;;;;5075511;28;20236;-83
2021/09/11 00:10:20;;;;;;;1.70;1.60;;;;;;;;;;5075332;28;20276;-83
2021/09/11 00:12:48;;;;;;;1.30;1.30;;;;;;;;;;5076075;28;20216;-83
2021/09/11 00:15:17;;;;;;;2.42;1.50;;;;;;;;;;5075880;28;20188;-82
2021/09/11 00:17:47;;;;;;;1.83;1.73;;;;;;;;;;5075621;28;20615;-83
2021/09/11 00:20:16;;;;;;;1.45;1.35;;;;;;;;;;5076139;28;20654;-83
2021/09/11 00:22:44;;;;;;;1.02;1.02;;;;;;;;;;5075689;28;20783;-83
2021/09/11 00:25:12;;;;;;;1.50;1.40;;;;;;;;;;5075800;28;20658;-83
2021/09/11 00:27:39;;;;;;;1.40;1.30;;;;;;;;;;5075069;28;20592;-83
2021/09/11 00:30:08;;;;;;;1.50;1.40;;;;;;;;;;5075783;28;21516;-83
2021/09/11 00:32:35;;;;;;;1.98;1.88;;;;;;;;;;5075329;28;20205;-83
2021/09/11 00:35:03;;;;;;;1.30;1.20;;;;;;;;;;5075384;28;20261;-82
2021/09/11 00:37:32;;;;;;;1.20;1.20;;;;;;;;;;5074997;28;20224;-83
2021/09/11 00:39:59;;;;;;;1.70;1.60;;;;;;;;;;5075447;28;20183;-83
2021/09/11 00:42:27;;;;;;;1.92;1.80;;;;;;;;;;5075864;28;20189;-83
2021/09/11 00:44:54;;;;;;;2.10;1.90;;;;;;;;;;5075552;28;20213;-83
2021/09/11 00:47:22;;;;;;;1.90;1.80;;;;;;;;;;5073739;28;20595;-83
2021/09/11 00:49:49;;;;;;;3.17;2.40;;;;;;;;;;5075249;28;20304;-83
2021/09/11 00:52:17;;;;;;;1.92;1.83;;;;;;;;;;5074936;28;20197;-83
2021/09/11 00:54:46;;;;;;;1.90;1.80;;;;;;;;;;5075531;28;20223;-83
2021/09/11 00:57:13;;;;;;;1.70;1.60;;;;;;;;;;5075209;28;20221;-83
2021/09/11 00:59:41;;;;;;;1.50;1.40;;;;;;;;;;5075027;28;20231;-83
2021/09/11 01:02:09;;;;;;;1.55;1.45;;;;;;;;;;5074715;28;20264;-83
2021/09/11 01:04:37;;;;;;;1.80;1.70;;;;;;;;;;5074676;28;20208;-82
2021/09/11 01:07:05;;;;;;;1.50;1.40;;;;;;;;;;5074627;28;20312;-83
2021/09/11 01:09:33;;;;;;;1.60;1.50;;;;;;;;;;5074693;28;20544;-83
2021/09/11 01:12:02;;;;;;;2.45;1.95;;;;;;;;;;5074298;28;20200;-83
2021/09/11 01:14:29;;;;;;;1.65;1.55;;;;;;;;;;5074252;28;20243;-83
2021/09/11 01:16:57;;;;;;;1.55;1.45;;;;;;;;;;5073320;28;22366;-83
2021/09/11 01:19:24;;;;;;;2.38;2.17;;;;;;;;;;5074486;28;20662;-83
2021/09/11 01:21:52;;;;;;;2.20;2.05;;;;;;;;;;5074182;28;20182;-82
2021/09/11 01:24:21;;;;;;;2.47;2.38;;;;;;;;;;5074343;28;20262;-83
2021/09/11 01:26:51;;;;;;;2.10;1.90;;;;;;;;;;5074155;28;20729;-83
2021/09/11 01:29:19;;;;;;;1.77;1.67;;;;;;;;;;5073865;28;20216;-83
2021/09/11 01:31:46;;;;;;;1.27;1.27;;;;;;;;;;5073894;28;20224;-82
2021/09/11 01:34:14;;;;;;;1.05;1.05;;;;;;;;;;5073158;28;20647;-83
2021/09/11 01:36:41;;;;;;;1.45;1.40;;;;;;;;;;5073123;28;20228;-83
2021/09/11 01:39:09;;;;;;;1.30;1.20;;;;;;;;;;5073275;28;20283;-83
2021/09/11 01:41:38;;;;;;;1.27;1.17;;;;;;;;;;5073919;28;20201;-83
2021/09/11 01:44:05;;;;;;;1.25;1.25;;;;;;;;;;5074097;28;20193;-84
2021/09/11 01:46:33;;;;;;;1.20;1.20;;;;;;;;;;5073832;28;20221;-84
2021/09/11 01:49:01;;;;;;;0.90;0.90;;;;;;;;;;5073300;28;20577;-83
2021/09/11 01:51:28;;;;;;;0.90;0.90;;;;;;;;;;5061801;28;20251;-85
2021/09/11 01:55:10;;;;;;;1.20;1.20;;;;;;;;;;5069938;28;20228;-85
2021/09/11 02:21:34;;;;;;;2.08;1.98;;;;;;;;;;4804210;29;20293;-85
2021/09/11 02:24:31;;;;;;;2.40;2.30;;;;;;;;;;4786346;29;20316;-84
2021/09/11 02:34:51;;;;;;;2.42;2.33;;;;;;;;;;4843083;29;20217;-84
2021/09/11 02:37:58;;;;;;;2.75;2.55;;;;;;;;;;4862298;29;20223;-82
2021/09/11 02:40:29;;;;;;;1.70;1.60;;;;;;;;;;4863774;29;20246;-83
2021/09/11 02:42:58;;;;;;;2.05;1.95;;;;;;;;;;4877131;29;20208;-83
2021/09/11 02:45:26;;;;;;;1.90;1.80;;;;;;;;;;4859045;29;20970;-83
2021/09/11 02:47:53;;;;;;;2.30;2.10;;;;;;;;;;4859821;29;20242;-84
2021/09/11 02:50:21;;;;;;;2.67;2.17;;;;;;;;;;4872312;29;20227;-84
2021/09/11 02:52:48;;;;;;;1.80;1.70;;;;;;;;;;4878222;29;20655;-83
2021/09/11 02:55:16;;;;;;;1.73;1.63;;;;;;;;;;4877491;29;20616;-84
2021/09/11 02:57:45;;;;;;;1.83;1.73;;;;;;;;;;4907932;29;20730;-84
2021/09/11 03:00:13;;;;;;;2.38;2.00;;;;;;;;;;4947211;29;20280;-84
2021/09/11 03:02:59;;;;;;;2.08;1.98;;;;;;;;;;4986739;28;20286;-84
2021/09/11 03:05:28;;;;;;;2.10;2.00;;;;;;;;;;5014158;28;20215;-84
2021/09/11 03:07:56;;;;;;;1.80;1.70;;;;;;;;;;5014257;28;20242;-84
2021/09/11 03:10:24;;;;;;;2.55;2.35;;;;;;;;;;5014352;28;20223;-84
2021/09/11 03:12:56;;;;;;;2.83;2.63;;;;;;;;;;5014914;28;20183;-84
2021/09/11 03:15:23;;;;;;;2.42;2.17;;;;;;;;;;5021367;28;20782;-84
2021/09/11 03:17:51;;;;;;;2.15;2.03;;;;;;;;;;5033659;28;20237;-85
2021/09/11 03:20:24;;;;;;;2.78;2.58;;;;;;;;;;5067633;28;20189;-84
2021/09/11 03:22:52;;;;;;;1.75;1.65;;;;;;;;;;5074236;28;20224;-85
2021/09/11 03:25:23;;;;;;;2.30;2.20;;;;;;;;;;5073563;28;20292;-84
2021/09/11 03:27:56;;;;;;;2.55;2.30;;;;;;;;;;5073774;28;20661;-84
2021/09/11 03:30:24;;;;;;;2.25;2.10;;;;;;;;;;5073670;28;20312;-83
2021/09/11 03:32:52;;;;;;;3.13;2.92;;;;;;;;;;5074201;28;20254;-85
2021/09/11 03:35:19;;;;;;;1.98;1.88;;;;;;;;;;5073552;28;20599;-84
2021/09/11 03:37:47;;;;;;;2.70;2.50;;;;;;;;;;5067894;28;20320;-85
2021/09/11 03:40:15;;;;;;;2.72;2.53;;;;;;;;;;5069131;28;20324;-85
2021/09/11 03:42:50;;;;;;;2.97;2.78;;;;;;;;;;5071034;28;20190;-85
2021/09/11 03:45:31;;;;;;;2.47;2.30;;;;;;;;;;5067614;28;20194;-85
2021/09/11 03:48:00;;;;;;;2.30;2.20;;;;;;;;;;5070952;28;20345;-85
2021/09/11 03:50:28;;;;;;;2.00;1.90;;;;;;;;;;5077299;28;20217;-84
2021/09/11 03:52:56;;;;;;;1.77;1.67;;;;;;;;;;5075898;28;20209;-85
2021/09/11 03:55:28;;;;;;;2.10;2.00;;;;;;;;;;5076286;28;20200;-84
2021/09/11 03:58:08;;;;;;;2.03;1.92;;;;;;;;;;5075839;28;20698;-83
2021/09/11 04:00:42;;;;;;;2.08;1.73;;;;;;;;;;5076335;28;20216;-83
2021/09/11 04:03:12;;;;;;;3.00;2.80;;;;;;;;;;5076899;28;20193;-84
2021/09/11 04:05:40;;;;;;;2.40;2.30;;;;;;;;;;5076922;28;20549;-83
2021/09/11 04:08:10;;;;;;;3.10;2.80;;;;;;;;;;5076735;28;20295;-85
2021/09/11 04:10:38;;;;;;;1.85;1.75;;;;;;;;;;5077553;28;20201;-85
2021/09/11 04:13:06;;;;;;;2.47;2.30;;;;;;;;;;5076853;28;20264;-86
2021/09/11 04:15:35;;;;;;;2.08;1.77;;;;;;;;;;5076037;28;20197;-85
2021/09/11 09:42:18;;;;;;;1.73;1.63;;;;;;;;;;5674942;24;20202;31
2021/09/11 09:44:47;;;;;;;2.00;1.90;;;;;;;;;;4666122;30;20227;-83
2021/09/11 09:47:16;;;;;;;1.70;1.60;;;;;;;;;;4675012;30;20719;-86
2021/09/11 09:50:10;;;;;;;2.50;2.30;;;;;;;;;;4665743;30;20626;-86
2021/09/11 09:52:39;;;;;;;1.90;1.80;;;;;;;;;;4652954;30;20708;-86
2021/09/11 09:55:18;;;;;;;3.25;2.95;;;;;;;;;;4681319;30;20235;-85
2021/09/11 09:57:47;;;;;;;2.70;2.50;;;;;;;;;;4682811;30;20231;-85
2021/09/11 10:00:16;;;;;;;3.00;2.15;;;;;;;;;;4669172;30;20200;-86
2021/09/11 10:02:45;;;;;;;2.47;2.00;;;;;;;;;;4669281;30;20208;-85
2021/09/11 10:05:15;;;;;;;2.03;1.92;;;;;;;;;;4668180;30;20562;-86
2021/09/11 10:07:55;;;;;;;1.88;1.77;;;;;;;;;;4668269;30;20231;-87
2021/09/11 10:10:29;;;;;;;2.13;2.03;;;;;;;;;;4669379;30;20213;-85
2021/09/11 10:13:15;;;;;;;2.28;2.17;;;;;;;;;;4669338;30;20230;-87
2021/09/11 10:15:56;;;;;;;2.42;2.22;;;;;;;;;;4681347;30;20273;-87
2021/09/11 16:21:50;;;;;;;2.47;2.28;;;;;;;;;;5702270;24;20196;31
2021/09/11 16:24:19;;;;;;;2.38;2.28;;;;;;;;;;4682403;30;20330;-85
2021/09/11 16:26:50;;;;;;;2.55;2.35;;;;;;;;;;4702268;30;20202;-85
2021/09/11 16:29:30;;;;;;;1.98;1.88;;;;;;;;;;4687811;30;20305;-85
2021/09/11 16:32:11;;;;;;;1.70;1.60;;;;;;;;;;4685108;30;20290;-87
2021/09/11 16:35:01;;;;;;;1.58;1.48;;;;;;;;;;4684100;30;20722;-88
2021/09/11 16:37:30;;;;;;;2.00;1.90;;;;;;;;;;4683851;30;20219;-90
2021/09/11 16:39:58;;;;;;;1.77;1.67;;;;;;;;;;4667397;30;20235;-85
2021/09/11 16:42:25;;;;;;;2.92;2.13;;;;;;;;;;4667221;30;20242;-86
2021/09/11 16:44:53;;;;;;;1.90;1.70;;;;;;;;;;4679215;30;20240;-86
2021/09/11 16:47:22;;;;;;;2.20;2.10;;;;;;;;;;4676201;30;20294;-87
2021/09/11 16:49:49;;;;;;;2.33;2.22;;;;;;;;;;4683855;30;20654;-86
2021/09/11 16:52:17;;;;;;;5.72;3.42;;;;;;;;;;4684239;30;20236;-87
2021/09/11 16:54:58;;;;;;;2.53;2.38;;;;;;;;;;4683687;30;20247;-86
2021/09/11 16:57:28;;;;;;;2.95;2.83;;;;;;;;;;4683774;30;20667;-87
2021/09/11 16:59:57;;;;;;;2.47;2.33;;;;;;;;;;4683827;30;20278;-88
2021/09/11 17:02:33;;;;;;;2.60;2.40;;;;;;;;;;4684558;30;20235;-87
2021/09/11 17:05:20;;;;;;;2.28;2.17;;;;;;;;;;4684571;30;20202;-85
2021/09/11 17:08:17;;;;;;;2.67;2.50;;;;;;;;;;4684325;30;20198;-86
2021/09/11 17:11:31;;;;;;;2.70;2.50;;;;;;;;;;4683974;30;20199;-87
2021/09/11 17:14:01;;;;;;;2.03;1.92;;;;;;;;;;4683765;30;20675;-85
2021/09/11 17:16:30;;;;;;;2.33;2.13;;;;;;;;;;4685404;30;20206;-84
2021/09/11 17:18:59;;;;;;;2.50;2.30;;;;;;;;;;4683564;30;20294;-86
2021/09/11 17:21:26;;;;;;;2.35;2.25;;;;;;;;;;4684257;30;20211;-85
2021/09/11 17:24:01;;;;;;;2.75;2.55;;;;;;;;;;4684389;30;20301;-86
2021/09/11 17:26:31;;;;;;;1.80;1.70;;;;;;;;;;4685338;30;20210;-87
2021/09/11 17:29:01;;;;;;;2.30;2.20;;;;;;;;;;4684507;30;20219;-86
2021/09/11 17:31:30;;;;;;;2.72;2.13;;;;;;;;;;4684466;30;20199;-86
2021/09/11 17:34:00;;;;;;;2.40;2.20;;;;;;;;;;4683870;30;20245;-87
2021/09/11 17:36:28;;;;;;;2.58;2.38;;;;;;;;;;4684648;30;20653;-85
2021/09/11 17:38:57;;;;;;;2.92;2.70;;;;;;;;;;4685723;30;20231;-88
2021/09/11 17:41:26;;;;;;;2.50;2.30;;;;;;;;;;4684724;30;20652;-86
2021/09/11 17:43:55;;;;;;;2.45;2.28;;;;;;;;;;4685220;30;20271;-86
2021/09/11 17:46:22;;;;;;;2.20;2.10;;;;;;;;;;4684688;30;20266;-84
2021/09/11 17:48:53;;;;;;;2.65;2.53;;;;;;;;;;4686708;30;20310;-86
2021/09/11 17:51:21;;;;;;;2.47;2.28;;;;;;;;;;4692894;30;20199;-86
2021/09/11 17:53:50;;;;;;;2.70;2.50;;;;;;;;;;4695171;30;20302;-85
2021/09/11 17:56:21;;;;;;;2.75;2.55;;;;;;;;;;4696483;30;20242;-86
2021/09/11 17:58:50;;;;;;;2.92;2.72;;;;;;;;;;4694595;30;20647;-86
2021/09/11 18:01:37;;;;;;;2.60;2.40;;;;;;;;;;4694264;30;20660;-85
2021/09/11 18:04:20;;;;;;;3.10;2.90;;;;;;;;;;4686165;30;20207;-86
2021/09/11 18:06:54;;;;;;;2.90;2.70;;;;;;;;;;4685715;30;20581;-86
2021/09/11 18:09:25;;;;;;;3.22;2.83;;;;;;;;;;4683971;30;20297;-86
2021/09/11 18:12:01;;;;;;;2.95;2.75;;;;;;;;;;4677830;30;20242;-86
2021/09/11 18:14:42;;;;;;;2.70;2.50;;;;;;;;;;4678274;30;20238;-87
2021/09/11 18:17:22;;;;;;;2.85;2.58;;;;;;;;;;4685502;30;20199;-86
2021/09/11 18:19:53;;;;;;;2.60;2.40;;;;;;;;;;4685296;30;20195;-84
2021/09/11 18:22:22;;;;;;;2.65;2.40;;;;;;;;;;4686256;30;20242;-87
2021/09/11 18:24:50;;;;;;;3.08;2.78;;;;;;;;;;4690478;30;20215;-87
2021/09/11 18:27:26;;;;;;;2.58;2.38;;;;;;;;;;4692510;30;20198;-87
2021/09/11 18:29:56;;;;;;;3.40;3.05;;;;;;;;;;4689962;30;20203;-88
2021/09/11 18:32:25;;;;;;;3.38;3.08;;;;;;;;;;4690144;30;20275;-88
2021/09/11 18:34:58;;;;;;;4.25;2.45;;;;;;;;;;4692855;30;20207;-86
2021/09/11 18:38:22;;;;;;;4.28;3.97;;;;;;;;;;4686270;30;20219;-85
2021/09/11 18:41:00;;;;;;;2.92;2.72;;;;;;;;;;4683033;30;20211;-86
2021/09/11 18:43:29;;;;;;;2.70;2.50;;;;;;;;;;4683258;30;20235;-86
2021/09/11 18:46:08;;;;;;;2.80;2.60;;;;;;;;;;4683403;30;20294;-86
2021/09/11 18:48:39;;;;;;;3.17;2.97;;;;;;;;;;4683401;30;20230;-85
2021/09/11 18:51:14;;;;;;;3.30;3.00;;;;;;;;;;4682678;30;20313;-86
2021/09/11 18:53:56;;;;;;;3.42;3.20;;;;;;;;;;4684704;30;20718;-85
2021/09/11 18:56:27;;;;;;;4.78;2.63;;;;;;;;;;4678538;30;20235;-85
2021/09/11 18:58:54;;;;;;;4.13;3.78;;;;;;;;;;4669359;30;20215;-87
2021/09/11 19:01:32;;;;;;;3.78;3.47;;;;;;;;;;4666738;30;20580;-85
2021/09/11 19:04:07;;;;;;;4.53;3.67;;;;;;;;;;4667295;30;20219;-85
2021/09/11 19:06:44;;;;;;;4.30;3.90;;;;;;;;;;4667104;30;20296;-86
2021/09/11 19:09:17;;;;;;;3.92;3.50;;;;;;;;;;4668432;30;20188;-85
2021/09/11 19:12:40;;;;;;;2.88;2.67;;;;;;;;;;4669963;30;20251;-86
2021/09/11 19:15:15;;;;;;;3.53;2.85;;;;;;;;;;4678280;30;20306;-85
2021/09/11 19:17:45;;;;;;;3.42;3.22;;;;;;;;;;4672193;30;20207;-86
2021/09/11 19:20:16;;;;;;;3.08;2.78;;;;;;;;;;4672110;30;20591;-87
2021/09/11 19:22:45;;;;;;;3.00;2.80;;;;;;;;;;4679697;30;20239;-86
2021/09/11 19:25:46;;;;;;;3.78;2.88;;;;;;;;;;4680763;30;20199;-86
2021/09/11 19:28:17;;;;;;;2.63;2.42;;;;;;;;;;4687473;30;20219;-85
2021/09/11 19:30:46;;;;;;;3.08;2.88;;;;;;;;;;4686925;30;20211;-85
2021/09/11 19:33:17;;;;;;;3.42;2.80;;;;;;;;;;4683826;30;20231;-85
2021/09/11 19:35:48;;;;;;;2.60;2.40;;;;;;;;;;4669952;30;20319;-85
2021/09/11 19:38:18;;;;;;;4.03;3.15;;;;;;;;;;4685337;30;20290;-86
2021/09/11 19:40:46;;;;;;;3.17;2.97;;;;;;;;;;4683394;30;20321;-86
2021/09/11 19:43:15;;;;;;;3.38;3.17;;;;;;;;;;4684689;30;20254;-85
2021/09/11 19:45:49;;;;;;;3.15;2.95;;;;;;;;;;4683320;30;20270;-85
2021/09/11 19:48:19;;;;;;;4.38;3.53;;;;;;;;;;4669791;30;20208;-85
2021/09/11 19:50:49;;;;;;;3.00;2.80;;;;;;;;;;4669067;30;20688;-85
2021/09/11 19:53:18;;;;;;;3.63;2.92;;;;;;;;;;4669129;30;20232;-85
2021/09/11 19:55:46;;;;;;;2.90;2.70;;;;;;;;;;4669468;30;20238;-86
2021/09/11 19:58:28;;;;;;;3.03;2.72;;;;;;;;;;4669659;30;20641;-85
2021/09/11 20:01:18;;;;;;;3.50;2.65;;;;;;;;;;4669516;30;20223;-86
2021/09/11 20:04:00;;;;;;;2.50;2.30;;;;;;;;;;4669099;30;20751;-86
2021/09/11 20:06:30;;;;;;;2.30;2.03;;;;;;;;;;4669668;30;20303;-86
2021/09/11 20:08:58;;;;;;;2.20;2.10;;;;;;;;;;4668887;30;20307;-86
2021/09/11 20:11:27;;;;;;;2.72;2.53;;;;;;;;;;4668554;30;20663;-86
2021/09/11 20:13:57;;;;;;;2.25;2.15;;;;;;;;;;4686310;30;20258;-86
2021/09/11 20:16:24;;;;;;;2.58;2.30;;;;;;;;;;4685135;30;20259;-86
2021/09/11 20:18:58;;;;;;;2.63;2.42;;;;;;;;;;4685303;30;20583;-86
2021/09/11 20:21:27;;;;;;;2.67;2.47;;;;;;;;;;4684119;30;20215;-85
2021/09/11 20:24:03;;;;;;;2.25;2.10;;;;;;;;;;4684721;30;20690;-85
2021/09/11 20:26:35;;;;;;;2.60;2.40;;;;;;;;;;4685301;30;20753;-85
2021/09/11 20:29:04;;;;;;;1.92;1.83;;;;;;;;;;4685446;30;20207;-85
2021/09/11 20:31:31;;;;;;;2.17;1.98;;;;;;;;;;4685240;30;20207;-85
2021/09/11 20:34:02;;;;;;;2.08;1.95;;;;;;;;;;4684948;30;20607;-85
2021/09/11 20:36:31;;;;;;;2.90;2.40;;;;;;;;;;4684820;30;20707;-85
2021/09/11 20:39:01;;;;;;;2.13;2.03;;;;;;;;;;4684676;30;20648;-86
2021/09/11 20:41:35;;;;;;;1.92;1.83;;;;;;;;;;4684459;30;20243;-85
2021/09/11 20:44:02;;;;;;;3.05;2.15;;;;;;;;;;4684363;30;20207;-85
2021/09/11 20:46:31;;;;;;;2.25;2.05;;;;;;;;;;4684446;30;20218;-85
2021/09/11 20:48:58;;;;;;;1.92;1.77;;;;;;;;;;4684866;30;20203;-85
2021/09/11 20:51:28;;;;;;;2.65;2.25;;;;;;;;;;4684570;30;20675;-85
2021/09/11 20:53:57;;;;;;;2.03;1.92;;;;;;;;;;4684845;30;20239;-85
2021/09/11 20:56:27;;;;;;;3.45;3.17;;;;;;;;;;4684622;30;20223;-84
2021/09/11 20:58:57;;;;;;;1.70;1.60;;;;;;;;;;4681496;30;20298;-85
2021/09/11 21:01:26;;;;;;;2.13;1.98;;;;;;;;;;4684576;30;20203;-85
2021/09/11 21:04:05;;;;;;;1.98;1.88;;;;;;;;;;4668216;30;20253;-85
2021/09/11 21:06:47;;;;;;;2.15;2.03;;;;;;;;;;4668007;30;20255;-85
2021/09/11 21:09:15;;;;;;;2.00;1.90;;;;;;;;;;4667505;30;20222;-85
2021/09/11 21:12:18;;;;;;;2.20;2.10;;;;;;;;;;4677582;30;20207;-84
2021/09/11 21:14:45;;;;;;;1.95;1.85;;;;;;;;;;4684574;30;20203;-85
2021/09/11 21:17:13;;;;;;;1.73;1.60;;;;;;;;;;4684381;30;20239;-84
2021/09/11 21:19:45;;;;;;;1.83;1.73;;;;;;;;;;4684460;30;20196;-84
2021/09/11 21:22:12;;;;;;;2.05;1.95;;;;;;;;;;4681877;30;20255;-85
2021/09/11 21:24:47;;;;;;;1.90;1.80;;;;;;;;;;4684105;30;20590;-85
2021/09/11 21:27:19;;;;;;;1.95;1.85;;;;;;;;;;4684370;30;20199;-84
2021/09/11 21:29:52;;;;;;;1.75;1.65;;;;;;;;;;4684448;30;20203;-84
2021/09/11 21:32:36;;;;;;;1.73;1.63;;;;;;;;;;4684273;30;20265;-84
2021/09/11 21:35:05;;;;;;;2.03;1.92;;;;;;;;;;4684275;30;20235;-85
2021/09/11 21:37:36;;;;;;;2.13;1.92;;;;;;;;;;4683799;30;20250;-84
2021/09/11 21:40:07;;;;;;;2.10;2.00;;;;;;;;;;4684621;30;20254;-85
2021/09/11 21:42:37;;;;;;;2.20;2.00;;;;;;;;;;4683621;30;20230;-83
2021/09/11 21:45:07;;;;;;;1.80;1.70;;;;;;;;;;4684282;30;20200;-85
2021/09/11 21:47:34;;;;;;;1.48;1.40;;;;;;;;;;4683868;30;20199;-83
2021/09/11 21:50:06;;;;;;;1.65;1.55;;;;;;;;;;4683795;30;20207;-81
2021/09/11 21:52:34;;;;;;;1.70;1.60;;;;;;;;;;4683098;30;20238;-83
2021/09/11 21:55:01;;;;;;;1.17;1.17;;;;;;;;;;4683451;30;20289;-83
2021/09/11 21:57:28;;;;;;;1.70;1.60;;;;;;;;;;4683257;30;20235;-80
2021/09/11 21:59:59;;;;;;;1.40;1.30;;;;;;;;;;4669144;30;20211;-83
2021/09/11 22:02:27;;;;;;;1.75;1.65;;;;;;;;;;4666353;30;20234;-82
2021/09/11 22:04:58;;;;;;;1.52;1.42;;;;;;;;;;4682168;30;20203;-83
2021/09/11 22:07:26;;;;;;;1.70;1.60;;;;;;;;;;4683745;30;20217;-81
2021/09/11 22:09:53;;;;;;;1.70;1.60;;;;;;;;;;4683342;30;20218;-84
2021/09/11 22:12:21;;;;;;;2.40;2.20;;;;;;;;;;4683511;30;20239;-86
2021/09/11 22:14:48;;;;;;;2.58;2.38;;;;;;;;;;4683183;30;20223;-80
2021/09/11 22:17:18;;;;;;;2.50;2.30;;;;;;;;;;4666089;30;20248;-82
2021/09/11 22:19:46;;;;;;;3.08;2.88;;;;;;;;;;4669380;30;20686;-83
2021/09/11 22:22:13;;;;;;;3.90;3.20;;;;;;;;;;4665929;30;20265;-85
2021/09/11 22:24:41;;;;;;;4.50;4.10;;;;;;;;;;4666141;30;20223;-84
2021/09/11 22:27:09;;;;;;;4.35;3.83;;;;;;;;;;4665827;30;20207;-84
2021/09/11 22:29:36;;;;;;;4.05;3.75;;;;;;;;;;4666159;30;20243;-84
2021/09/11 22:32:05;;;;;;;3.60;3.30;;;;;;;;;;4666098;30;20712;-83
2021/09/11 22:34:33;;;;;;;3.63;3.33;;;;;;;;;;4665652;30;20192;-84
2021/09/11 22:37:02;;;;;;;5.55;3.40;;;;;;;;;;4666100;30;20632;-84
2021/09/11 22:39:30;;;;;;;3.13;2.88;;;;;;;;;;4673104;30;20199;-83
2021/09/11 22:41:57;;;;;;;4.30;2.95;;;;;;;;;;4683265;30;20235;-83
2021/09/11 22:44:25;;;;;;;2.85;2.63;;;;;;;;;;4682231;30;20192;-81
2021/09/11 22:46:52;;;;;;;2.67;2.47;;;;;;;;;;4682258;30;20250;-86
2021/09/11 22:49:20;;;;;;;2.75;2.55;;;;;;;;;;4682339;30;20206;-85
2021/09/11 22:51:48;;;;;;;2.58;2.33;;;;;;;;;;4681940;30;20209;-85
2021/09/11 22:54:16;;;;;;;1.85;1.75;;;;;;;;;;4682161;30;20203;-83
2021/09/11 22:56:43;;;;;;;2.25;2.15;;;;;;;;;;4681587;30;20234;-86
2021/09/11 22:59:11;;;;;;;1.70;1.60;;;;;;;;;;4682428;30;20195;-85
2021/09/11 23:01:38;;;;;;;1.92;1.83;;;;;;;;;;4668536;30;20211;-85
2021/09/11 23:04:06;;;;;;;2.28;2.08;;;;;;;;;;4664922;30;20609;-83
2021/09/11 23:06:35;;;;;;;1.70;1.60;;;;;;;;;;4664984;30;20582;-85
2021/09/11 23:09:04;;;;;;;2.38;1.70;;;;;;;;;;4665245;30;20204;-84
2021/09/11 23:11:32;;;;;;;2.03;1.88;;;;;;;;;;4665012;30;20201;-85
2021/09/11 23:13:59;;;;;;;1.52;1.42;;;;;;;;;;4664909;30;20223;-85
2021/09/11 23:16:27;;;;;;;1.75;1.65;;;;;;;;;;4677802;30;20207;-85
2021/09/11 23:18:54;;;;;;;2.40;2.25;;;;;;;;;;4681321;30;20231;-85
2021/09/11 23:21:22;;;;;;;2.13;2.03;;;;;;;;;;4681050;30;20218;-86
2021/09/11 23:23:49;;;;;;;1.80;1.70;;;;;;;;;;4681266;30;20250;-85
2021/09/11 23:26:18;;;;;;;2.00;1.90;;;;;;;;;;4681677;30;20707;-86
2021/09/11 23:28:46;;;;;;;2.13;2.03;;;;;;;;;;4681955;30;20199;-85
2021/09/11 23:31:13;;;;;;;2.03;1.92;;;;;;;;;;4681843;30;20204;-85
2021/09/11 23:33:41;;;;;;;2.30;2.10;;;;;;;;;;4681798;30;20248;-85
2021/09/11 23:36:09;;;;;;;2.38;2.13;;;;;;;;;;4681672;30;20199;-86
2021/09/11 23:38:37;;;;;;;2.38;2.28;;;;;;;;;;4682044;30;20314;-85
2021/09/11 23:41:04;;;;;;;3.08;2.88;;;;;;;;;;4681999;30;20231;-85
2021/09/11 23:43:33;;;;;;;3.05;2.83;;;;;;;;;;4681712;30;20240;-85
2021/09/11 23:46:01;;;;;;;3.38;3.08;;;;;;;;;;4681883;30;20587;-86
2021/09/11 23:48:29;;;;;;;3.38;3.17;;;;;;;;;;4682041;30;20680;-85
2021/09/11 23:50:56;;;;;;;2.80;2.60;;;;;;;;;;4681786;30;20777;-85
2021/09/11 23:53:24;;;;;;;3.30;3.10;;;;;;;;;;4681772;30;20243;-85
2021/09/11 23:55:51;;;;;;;3.38;3.08;;;;;;;;;;4683186;30;20698;-83
2021/09/11 23:58:19;;;;;;;3.20;2.90;;;;;;;;;;4684771;30;20239;-85
